WetterOnline ( https://www.wetteronline.ch )

Wetter aktuell Bremervörde

Aktuelles Wetter: Bremervörde (5m)

6-stündlich | Neueste Meldungen
Ortszeit Temperatur Wetter
Sa, 22.02. 19:00 9.0° C leichter Regen
Sa, 22.02. 13:00 8.1° C bewölkt
Sa, 22.02. 7:00 7.7° C bewölkt
Sa, 22.02. 1:00 8.1° C bedeckt
Fr, 21.02. 19:00 6.3° C leichter Regen
Fr, 21.02. 13:00 7.0° C bedeckt
Fr, 21.02. 7:00 4.2° C bewölkt
Fr, 21.02. 1:00 4.8° C leichter Regen
Ortszeit Temperatur Wetter
Sa, 22.02. 19:30 9.1° C wolkig
Sa, 22.02. 19:20 9.1° C wolkig
Sa, 22.02. 19:10 8.9° C wolkig
Sa, 22.02. 19:00 9.0° C leichter Regen
Sa, 22.02. 18:50 9.0° C leichter Regen
Sa, 22.02. 18:40 8.8° C bewölkt
Sa, 22.02. 18:30 8.8° C bedeckt
Sa, 22.02. 18:00 8.8° C bedeckt
Ortszeit Relative Feuchte Sichtweite
Sa, 22.02. 19:00 67% 40 km
Sa, 22.02. 13:00 84% 35 km
Sa, 22.02. 7:00 75% 35 km
Sa, 22.02. 1:00 74% 30 km
Fr, 21.02. 19:00 87% 10 km
Fr, 21.02. 13:00 74% 27 km
Fr, 21.02. 7:00 87% 27 km
Fr, 21.02. 1:00 88% 30 km
Ortszeit Relative Feuchte Sichtweite
Sa, 22.02. 19:30 69% 40 km
Sa, 22.02. 19:20 69% -
Sa, 22.02. 19:10 71% -
Sa, 22.02. 19:00 67% 40 km
Sa, 22.02. 18:50 67% -
Sa, 22.02. 18:40 66% -
Sa, 22.02. 18:30 63% 40 km
Sa, 22.02. 18:00 66% 45 km
Ortszeit Niederschlagsmenge Niederschlagsart
Sa, 22.02. 19:00 5 l/m2 in 12 Std. Regen
Sa, 22.02. 13:00 2 l/m2 in 6 Std. Regen
Sa, 22.02. 7:00 0.9 l/m2 in 12 Std. -
Sa, 22.02. 1:00 0.9 l/m2 in 6 Std. Regen
Fr, 21.02. 19:00 0.8 l/m2 in 12 Std. Regen
Fr, 21.02. 13:00 0.1 l/m2 in 6 Std. Regen
Fr, 21.02. 7:00 7 l/m2 in 12 Std. Regen
Fr, 21.02. 1:00 6 l/m2 in 6 Std. Regen
Ortszeit Niederschlagsmenge Niederschlagsart
Sa, 22.02. 19:30 0.1 l/m2 in 1 Std. Schneeregen
Sa, 22.02. 19:20 keine Meldung -
Sa, 22.02. 19:10 keine Meldung -
Sa, 22.02. 19:00 0.1 l/m2 in 1 Std. Regen
Sa, 22.02. 18:50 keine Meldung -
Sa, 22.02. 18:40 keine Meldung -
Sa, 22.02. 18:30 0.0 l/m2 in 1 Std. -
Sa, 22.02. 18:00 0.0 l/m2 in 1 Std. -
Ortszeit Stärke Spitze Richtung
km/h Bft. km/h Grad Sektor
Sa, 22.02. 19:00 36 5 72 270° W
Sa, 22.02. 13:00 43 6 74 250° W
Sa, 22.02. 7:00 32 5 58 230° SW
Sa, 22.02. 1:00 31 5 48 230° SW
Fr, 21.02. 19:00 24 4 52 230° SW
Fr, 21.02. 13:00 29 5 50 260° W
Fr, 21.02. 7:00 30 5 56 270° W
Fr, 21.02. 1:00 25 4 68 280° W
Ortszeit Stärke Spitze Richtung
km/h Bft. km/h Grad Sektor
Sa, 22.02. 19:30 35 5 59 270° W
Sa, 22.02. 19:20 35 5 - 270° W
Sa, 22.02. 19:10 32 5 - 270° W
Sa, 22.02. 19:00 36 5 58 270° W
Sa, 22.02. 18:50 36 5 - 270° W
Sa, 22.02. 18:40 32 5 - 280° W
Sa, 22.02. 18:30 37 5 57 280° W
Sa, 22.02. 18:00 37 5 61 280° W
Ortszeit Untergrenze Bedeckung Gattung
total tief tief mittel hoch
Sa, 22.02. 19:00 1500 m 8/8 1/8 - - -
Sa, 22.02. 13:00 480 m 7/8 7/8 - - -
Sa, 22.02. 7:00 720 m 7/8 7/8 - - -
Sa, 22.02. 1:00 780 m 8/8 8/8 - - -
Fr, 21.02. 19:00 720 m 7/8 7/8 - - -
Fr, 21.02. 13:00 690 m 8/8 8/8 - - -
Fr, 21.02. 7:00 510 m 7/8 7/8 - - -
Fr, 21.02. 1:00 780 m 8/8 7/8 - - -
Ortszeit Bedeckungsgrad in Achtel und Wolkenuntergrenze
Sa, 22.02. 19:30 1(1230m) 8(3300m) 8(4200m)
Sa, 22.02. 19:20 1(1230m) 8(3300m) 8(4200m)
Sa, 22.02. 19:10 2(1230m) 8(3300m) 8(4200m)
Sa, 22.02. 19:00 1(1500m) 8(3900m) 8(4500m)
Sa, 22.02. 18:50 1(1500m) 8(3900m) 8(4500m)
Sa, 22.02. 18:40 5(2700m) 8(3900m)
Sa, 22.02. 18:30 8(3900m) 8(6300m) 8(6300m)
Sa, 22.02. 18:00 8(3600m)
Ortszeit Luftdruck NN (hPa) Tendenz (hPa in 3 Std.)
Sa, 22.02. 19:00 1012 + 2,3
Sa, 22.02. 13:00 1009 - 0,7
Sa, 22.02. 7:00 1012 - 2,2
Sa, 22.02. 1:00 1017 - 2,1
Fr, 21.02. 19:00 1020 - 0,1
Fr, 21.02. 13:00 1021 + 1,2
Fr, 21.02. 7:00 1017 + 3,4
Fr, 21.02. 1:00 1009 + 5,1
Ortszeit Luftdruck NN (hPa) Tendenz (hPa in 3 Std.)
Sa, 22.02. 19:30 1013 + 2,4
Sa, 22.02. 19:20 1013 keine Meldung
Sa, 22.02. 19:10 1013 keine Meldung
Sa, 22.02. 19:00 1012 + 2,3
Sa, 22.02. 18:50 1012 keine Meldung
Sa, 22.02. 18:40 1012 keine Meldung
Sa, 22.02. 18:30 1012 + 2,5
Sa, 22.02. 18:00 1012 + 2,7
Ortszeit Schneehöhe (cm)
Sa, 22.02. 19:00 0
Sa, 22.02. 13:00 0
Sa, 22.02. 7:00 0
Sa, 22.02. 1:00 0
Fr, 21.02. 19:00 0
Fr, 21.02. 13:00 0
Fr, 21.02. 7:00 0
Fr, 21.02. 1:00 0
Ortszeit Schneehöhe (cm)
Sa, 22.02. 19:30 0
Sa, 22.02. 19:20 0
Sa, 22.02. 19:10 0
Sa, 22.02. 19:00 0
Sa, 22.02. 18:50 0
Sa, 22.02. 18:40 0
Sa, 22.02. 18:30 0
Sa, 22.02. 18:00 0
Link zu dieser Seite / Seite empfehlen

Das Wetter in ...